Latest Weather Observations for Strahan

IDT60801

Issued at 9:05 pm EDT Saturday 1 November 2014 (issued every 30 minutes, with the page automatically refreshed every 10 minutes)

About weather observations | Map of weather stations | Latest weather observations for TAS | Other Formats
Station Details ID: 097072 Name: STRAHAN AERODROME Lat: -42.16 Lon: 145.29 Height: 21.0 m
Data from the previous 72 hours. | See also: Recent months at Strahan
Date/Time
EDT
Temp
°C
App
Temp
°C
Dew
Point
Rel
Hum
%
Delta-T
°C
Wind Press
QNH
hPa
Press
MSL
hPa
Rain
since 9 am
mm
Dir
 
Spd
km/h
Gust
km/h
Spd
kts
Gust
kts
01/09:00pm 4.1 -3.4 1.1 81 1.2 WSW 30 41 16 22 1004.6 1004.6 3.0
01/08:56pm 4.0 -3.5 1.2 82 1.1 WSW 30 41 16 22 1004.4 1004.4 3.0
01/08:41pm 3.0 -5.6 0.4 83 1.0 W 35 46 19 25 1004.4 1004.4 3.0
01/08:37pm 3.2 -10.3 0.3 81 1.1 WSW 61 83 33 45 1004.7 1004.7 2.6
01/08:36pm 3.6 -10.3 0.5 80 1.2 WSW 63 83 34 45 1004.6 1004.6 2.4
01/08:33pm 5.5 -3.2 -0.5 65 2.3 WSW 35 69 19 37 1004.0 1004.0 2.2
01/08:30pm 5.5 -2.7 0.1 68 2.1 W 33 43 18 23 1003.8 1003.8 2.2
01/08:00pm 4.2 -2.9 1.1 80 1.2 WSW 28 43 15 23 1004.0 1004.0 2.2
01/07:30pm 4.4 -4.3 1.9 84 1.0 SW 37 61 20 33 1003.7 1003.7 2.2
01/07:23pm 5.1 -4.5 1.4 77 1.5 SW 41 61 22 33 1003.5 1003.5 2.2
01/07:22pm 5.1 -5.1 1.0 75 1.6 SW 44 61 24 33 1003.5 1003.5 2.2
01/07:00pm 5.5 -2.8 -0.3 66 2.2 W 33 61 18 33 1002.6 1002.6 2.2
01/06:33pm 5.5 -3.2 -0.5 65 2.3 W 35 54 19 29 1002.4 1002.4 2.0
01/06:30pm 5.8 -2.4 0.4 68 2.1 W 33 50 18 27 1002.3 1002.3 2.0
01/06:27pm 5.4 -3.2 0.0 68 2.1 W 35 44 19 24 1002.3 1002.3 2.0
01/06:00pm 6.4 -2.3 1.7 72 1.9 WSW 37 57 20 31 1001.8 1001.8 2.0
01/05:58pm 6.3 -2.9 1.4 71 2.0 WSW 39 57 21 31 1001.8 1001.8 2.0
01/05:54pm 6.6 -2.1 2.1 73 1.8 WSW 37 46 20 25 1001.7 1001.7 2.0
01/05:32pm 6.5 -2.0 1.0 68 2.2 W 35 57 19 31 1001.4 1001.4 1.4
01/05:30pm 6.9 -1.6 1.2 67 2.3 W 35 48 19 26 1001.1 1001.1 1.4
01/05:17pm 8.0 -1.7 0.7 60 2.9 W 41 61 22 33 1001.2 1001.2 1.4
01/05:00pm 7.1 -2.2 0.5 63 2.6 W 39 54 21 29 1001.1 1001.1 1.4
01/04:32pm 6.0 -3.7 2.8 80 1.3 WNW 43 61 23 33 1000.9 1000.9 1.4
01/04:30pm 5.9 -4.1 2.4 78 1.4 WNW 44 61 24 33 1000.8 1000.8 1.4
01/04:27pm 6.3 -4.2 1.4 71 2.0 WNW 46 61 25 33 1000.9 1000.9 1.4
01/04:00pm 7.6 -1.0 2.7 71 2.1 W 37 54 20 29 1000.4 1000.4 1.4
01/03:34pm 7.2 0.0 2.9 74 1.8 W 30 52 16 28 1000.3 1000.3 1.4
01/03:30pm 6.6 -0.9 3.2 79 1.4 W 32 44 17 24 1000.3 1000.3 1.4
01/03:11pm 5.0 -3.3 2.0 81 1.2 W 35 61 19 33 1000.6 1000.6 1.2
01/03:05pm 6.9 0.0 2.6 74 1.8 W 28 46 15 25 1000.2 1000.2 0.8
01/03:00pm 7.5 0.2 2.2 69 2.2 W 30 43 16 23 1000.0 1000.0 0.6
01/02:41pm 8.4 -1.3 0.4 57 3.2 W 41 61 22 33 999.9 999.9 0.6
01/02:30pm 10.2 0.2 1.1 53 3.8 W 43 52 23 28 999.7 999.7 0.6
01/02:29pm 10.9 1.5 2.5 56 3.6 W 41 52 22 28 999.7 999.7 0.6
01/02:00pm 7.8 -2.5 -0.9 54 3.4 WNW 43 69 23 37 999.6 999.6 0.6
01/01:59pm 7.8 -3.1 -1.2 53 3.4 WNW 46 69 25 37 999.6 999.6 0.6
01/01:30pm 10.7 0.9 2.3 56 3.6 W 43 63 23 34 999.0 999.0 0.6
01/01:00pm 10.7 0.9 2.3 56 3.6 W 43 61 23 33 998.6 998.6 0.6
01/12:30pm 10.2 2.2 3.7 64 2.9 W 35 56 19 30 998.1 998.1 0.6
01/12:10pm 10.1 1.5 4.5 68 2.5 W 39 57 21 31 998.0 998.0 0.6
01/12:00pm 9.0 1.0 3.6 69 2.4 W 35 50 19 27 997.9 997.9 0.6
01/11:30am 9.2 1.1 5.4 77 1.7 W 37 56 20 30 997.4 997.4 0.6
01/11:24am 9.0 1.4 5.6 79 1.5 W 35 56 19 30 997.2 997.2 0.6
01/11:00am 7.3 0.0 5.4 88 0.9 W 33 46 18 25 997.1 997.1 0.6
01/10:47am 7.5 0.7 5.0 84 1.1 WNW 30 48 16 26 996.8 996.8 0.4
01/10:37am 7.9 0.9 5.9 87 0.9 WNW 32 43 17 23 996.7 996.7 0.4
01/10:30am 7.3 -0.4 5.3 87 0.9 WNW 35 56 19 30 996.5 996.5 0.4
01/10:19am 8.2 -0.2 5.5 83 1.2 WNW 39 57 21 31 996.2 996.2 0.2
01/10:15am 8.1 -0.4 5.0 81 1.4 W 39 54 21 29 996.1 996.1 0.2
01/10:04am 10.4 3.8 4.3 66 2.7 W 28 50 15 27 995.9 995.9 0.0
01/10:00am 10.3 4.5 6.1 75 2.0 W 26 35 14 19 996.0 996.0 0.0
01/09:30am 9.8 2.4 4.2 68 2.5 WNW 32 46 17 25 995.7 995.7 0.0
01/09:00am 10.5 3.8 5.5 71 2.3 WNW 30 43 16 23 995.8 995.8 10.6
01/08:30am 11.0 4.4 6.2 72 2.2 WNW 30 41 16 22 995.8 995.8 10.6
01/08:00am 9.9 5.1 5.5 74 2.0 WNW 20 28 11 15 995.9 995.9 10.6
01/07:30am 9.1 3.0 4.7 74 2.0 W 26 33 14 18 995.6 995.6 10.6
01/07:00am 8.9 1.9 4.3 73 2.0 W 30 43 16 23 995.2 995.2 10.6
01/06:30am 9.0 3.3 6.6 85 1.1 W 26 39 14 21 994.6 994.6 10.6
01/06:00am 8.9 2.4 6.7 86 1.0 W 30 44 16 24 994.2 994.2 10.6
01/05:30am 9.2 2.5 8.1 93 0.5 W 33 44 18 24 993.6 993.6 10.4
01/05:01am 9.4 3.4 8.8 96 0.3 W 30 46 16 25 993.0 993.0 10.2
01/05:00am 9.4 3.4 8.8 96 0.3 W 30 46 16 25 993.0 993.0 10.2
01/04:30am 10.3 5.4 9.8 97 0.3 NNW 26 39 14 21 992.1 992.1 8.2
01/04:29am 10.3 5.4 9.8 97 0.3 NNW 26 37 14 20 992.1 992.1 8.2
01/04:16am 10.3 5.4 9.8 97 0.3 N 26 37 14 20 992.0 992.0 7.2
01/04:00am 10.4 5.5 9.9 97 0.3 NNW 26 37 14 20 991.9 991.9 7.2
01/03:30am 10.6 5.7 10.1 97 0.3 NNW 26 33 14 18 992.5 992.5 6.8
01/03:17am 10.5 5.2 10.0 97 0.3 NNW 28 46 15 25 992.9 992.9 6.8
01/03:04am 10.6 4.4 10.1 97 0.3 NNW 33 46 18 25 993.3 993.3 6.6
01/03:00am 10.5 3.9 10.0 97 0.3 NNW 35 48 19 26 993.4 993.4 6.6
01/02:46am 11.1 5.6 10.6 97 0.3 NNW 30 48 16 26 993.7 993.7 6.2
01/02:30am 10.6 4.7 10.3 98 0.2 N 32 43 17 23 993.7 993.7 5.6
01/02:00am 11.0 5.9 10.7 98 0.2 NNW 28 39 15 21 993.9 993.9 3.8
01/01:30am 11.2 6.5 10.7 97 0.3 NNW 26 39 14 21 994.1 994.1 2.6
01/01:20am 11.2 6.5 10.7 97 0.3 NNW 26 35 14 19 994.2 994.2 2.4
01/01:00am 11.3 6.3 10.8 97 0.3 NW 28 44 15 24 994.0 994.0 1.8
01/12:30am 11.8 5.7 10.4 91 0.7 NW 33 44 18 24 994.6 994.6 1.6
01/12:05am 12.7 6.1 10.1 84 1.3 NW 35 54 19 29 995.0 995.0 1.6
01/12:00am 13.0 5.9 9.6 80 1.8 NW 37 54 20 29 995.1 995.1 1.6
 
Date/Time
EDT
Temp
°C
App
Temp
°C
Dew
Point
Rel
Hum
%
Delta-T
°C
Wind Press
QNH
hPa
Press
MSL
hPa
Rain
since 9 am
mm
Dir
 
Spd
km/h
Gust
km/h
Spd
kts
Gust
kts
31/11:51pm 13.8 6.6 9.3 74 2.3 NW 37 46 20 25 994.8 994.8 1.6
31/11:32pm 14.4 8.9 9.0 70 2.7 NNW 28 52 15 28 994.0 994.0 1.6
31/11:30pm 14.4 9.2 8.8 69 2.8 N 26 41 14 22 993.9 993.9 1.6
31/11:00pm 15.0 10.1 8.5 65 3.3 N 24 33 13 18 993.3 993.3 1.6
31/10:30pm 14.7 10.5 8.4 66 3.2 N 20 28 11 15 993.9 993.9 1.6
31/10:00pm 13.6 10.1 8.9 73 2.4 N 17 28 9 15 993.9 993.9 1.4
31/09:30pm 13.6 11.0 9.3 75 2.2 N 13 22 7 12 994.4 994.4 1.4
31/09:00pm 15.7 11.0 7.7 59 4.0 N 22 30 12 16 994.5 994.5 1.2
31/08:30pm 16.0 11.2 7.5 57 4.2 N 22 32 12 17 994.5 994.5 1.2
31/08:00pm 15.8 11.1 7.6 58 4.1 N 22 28 12 15 994.9 994.9 1.2
31/07:30pm 16.7 10.7 7.1 53 4.8 N 28 52 15 28 995.3 995.3 1.2
31/07:12pm 16.5 10.5 6.9 53 4.7 N 28 48 15 26 994.9 994.9 1.2
31/07:00pm 15.9 11.4 7.1 56 4.4 N 20 32 11 17 994.7 994.7 1.2
31/06:30pm 15.7 10.9 7.5 58 4.1 N 22 33 12 18 994.8 994.8 1.2
31/06:00pm 14.6 10.9 8.1 65 3.3 N 17 26 9 14 995.3 995.3 1.2
31/05:30pm 14.9 10.8 8.8 67 3.1 N 20 30 11 16 995.8 995.8 1.2
31/05:00pm 14.7 11.0 9.5 71 2.7 N 19 33 10 18 996.3 996.3 1.2
31/04:30pm 14.1 11.3 9.9 76 2.2 N 15 24 8 13 997.1 997.1 1.2
31/04:00pm 14.0 10.5 10.2 78 2.0 N 19 28 10 15 997.7 997.7 1.2
31/03:30pm 13.5 10.4 10.3 81 1.7 N 17 26 9 14 998.9 998.9 1.0
31/03:00pm 13.3 10.3 10.7 84 1.4 NNE 17 24 9 13 999.5 999.5 1.0
31/02:30pm 12.7 10.0 11.8 94 0.5 NNE 17 24 9 13 1000.4 1000.4 1.0
31/02:00pm 12.1 9.0 10.3 89 0.9 N 17 28 9 15 1001.5 1001.5 1.0
31/01:30pm 11.4 8.2 10.1 92 0.7 NNE 17 28 9 15 1001.2 1001.2 1.0
31/01:00pm 11.0 7.8 9.9 93 0.6 N 17 28 9 15 1001.9 1001.9 1.0
31/12:30pm 10.6 7.6 9.4 92 0.6 N 15 22 8 12 1002.6 1002.6 0.8
31/12:00pm 10.2 6.4 9.1 93 0.5 NNE 19 30 10 16 1002.3 1002.3 0.8
31/11:30am 10.2 7.1 8.8 91 0.7 N 15 22 8 12 1003.6 1003.6 0.4
31/11:00am 10.3 6.3 8.4 88 0.9 N 19 26 10 14 1004.1 1004.1 0.2
31/10:30am 10.1 6.1 8.2 88 0.9 N 19 24 10 13 1004.9 1004.9 0.0
31/10:00am 10.0 5.9 7.9 87 1.0 N 19 22 10 12 1005.3 1005.3 0.0
31/09:30am 9.9 5.9 8.2 89 0.8 N 19 24 10 13 1005.5 1005.5 0.0
31/09:00am 9.3 5.3 8.2 93 0.5 N 19 26 10 14 1005.9 1005.9 5.0
31/08:30am 9.0 5.2 7.5 90 0.7 N 17 22 9 12 1006.0 1006.0 5.0
31/08:00am 9.0 4.8 7.5 90 0.7 N 19 28 10 15 1006.0 1006.0 5.0
31/07:30am 8.6 5.1 7.4 92 0.6 N 15 22 8 12 1006.3 1006.3 5.0
31/07:00am 8.5 5.4 7.4 93 0.5 N 13 20 7 11 1006.1 1006.1 5.0
31/06:30am 8.3 4.8 7.4 94 0.4 N 15 26 8 14 1006.6 1006.6 5.0
31/06:00am 8.5 4.7 7.4 93 0.5 N 17 22 9 12 1006.7 1006.7 5.0
31/05:30am 8.8 3.1 6.8 87 0.9 NNW 26 33 14 18 1006.7 1006.7 5.0
31/05:00am 8.8 3.7 7.7 93 0.5 NW 24 35 13 19 1006.8 1006.8 5.0
31/04:35am 9.2 3.9 8.4 95 0.4 NNW 26 33 14 18 1006.9 1006.9 4.8
31/04:30am 9.1 4.2 8.3 95 0.4 NNW 24 33 13 18 1007.0 1007.0 4.8
31/04:19am 9.4 4.6 8.8 96 0.3 NNW 24 37 13 20 1007.3 1007.3 4.8
31/04:00am 9.3 5.2 8.5 95 0.4 NNW 20 28 11 15 1007.6 1007.6 4.4
31/03:30am 9.2 5.3 8.7 97 0.2 NNW 19 22 10 12 1007.9 1007.9 4.4
31/03:10am 9.2 4.7 8.7 97 0.2 NNW 22 30 12 16 1007.8 1007.8 4.4
31/03:00am 9.0 4.9 8.5 97 0.2 NNW 20 28 11 15 1007.9 1007.9 4.4
31/02:49am 9.1 4.2 8.6 97 0.2 NNW 24 39 13 21 1008.0 1008.0 4.4
31/02:34am 9.3 4.5 8.8 97 0.2 NW 24 33 13 18 1008.3 1008.3 4.4
31/02:30am 9.2 4.4 8.7 97 0.2 NW 24 33 13 18 1008.4 1008.4 4.2
31/02:28am 9.2 4.4 8.7 97 0.2 NW 24 33 13 18 1008.4 1008.4 4.2
31/02:27am 9.4 4.6 8.9 97 0.2 NW 24 32 13 17 1008.4 1008.4 4.2
31/02:08am 9.3 4.5 8.8 97 0.2 NNW 24 32 13 17 1008.5 1008.5 4.2
31/02:00am 9.2 4.7 8.7 97 0.2 NNW 22 32 12 17 1008.6 1008.6 4.2
31/01:57am 9.4 5.4 8.9 97 0.2 NNW 20 28 11 15 1008.7 1008.7 4.2
31/01:48am 9.3 4.5 8.8 97 0.2 NW 24 33 13 18 1008.9 1008.9 4.2
31/01:30am 9.4 5.0 8.9 97 0.2 NNW 22 39 12 21 1009.1 1009.1 4.2
31/01:11am 9.4 5.6 8.9 97 0.2 NW 19 26 10 14 1009.4 1009.4 4.0
31/01:00am 9.4 5.0 8.9 97 0.2 NW 22 30 12 16 1009.6 1009.6 4.0
31/12:47am 9.4 5.0 8.9 97 0.2 NNW 22 35 12 19 1009.8 1009.8 3.2
31/12:43am 9.4 5.4 8.9 97 0.2 NNW 20 28 11 15 1009.8 1009.8 3.2
31/12:30am 9.3 4.5 8.8 97 0.2 NNW 24 33 13 18 1009.8 1009.8 3.2
31/12:27am 9.3 4.9 8.8 97 0.2 NNW 22 33 12 18 1009.8 1009.8 3.2
31/12:26am 9.4 5.0 8.9 97 0.2 NNW 22 33 12 18 1009.9 1009.9 3.0
31/12:24am 9.4 5.0 8.9 97 0.2 NNW 22 33 12 18 1009.8 1009.8 3.0
31/12:04am 9.5 5.1 9.0 97 0.2 NNW 22 32 12 17 1010.0 1010.0 3.0
31/12:00am 9.5 5.5 9.0 97 0.2 NNW 20 32 11 17 1009.9 1009.9 3.0
 
Date/Time
EDT
Temp
°C
App
Temp
°C
Dew
Point
Rel
Hum
%
Delta-T
°C
Wind Press
QNH
hPa
Press
MSL
hPa
Rain
since 9 am
mm
Dir
 
Spd
km/h
Gust
km/h
Spd
kts
Gust
kts
30/11:30pm 9.3 4.5 8.7 96 0.3 NNW 24 32 13 17 1010.0 1010.0 3.0
30/11:27pm 9.3 4.5 8.7 96 0.3 NNW 24 32 13 17 1010.0 1010.0 3.0
30/11:15pm 9.4 5.0 8.8 96 0.3 NNW 22 32 12 17 1010.1 1010.1 3.0
30/11:00pm 9.2 4.3 8.6 96 0.3 NNW 24 33 13 18 1010.1 1010.1 3.0
30/10:32pm 9.2 5.1 8.7 97 0.2 NNW 20 26 11 14 1010.3 1010.3 3.0
30/10:30pm 9.2 5.1 8.7 97 0.2 NNW 20 28 11 15 1010.3 1010.3 3.0
30/10:28pm 9.1 4.6 8.6 97 0.2 NNW 22 28 12 15 1010.3 1010.3 3.0
30/10:17pm 9.0 4.1 8.4 96 0.3 NW 24 35 13 19 1010.5 1010.6 2.8
30/10:12pm 9.2 4.7 8.4 95 0.4 NW 22 35 12 19 1010.5 1010.6 2.8
30/10:00pm 9.5 5.1 8.9 96 0.3 NW 22 30 12 16 1010.5 1010.6 2.8
30/09:35pm 9.1 5.2 8.6 97 0.2 NW 19 28 10 15 1010.5 1010.6 2.8
30/09:30pm 9.2 5.3 8.7 97 0.2 NW 19 24 10 13 1010.5 1010.6 2.8
30/09:16pm 9.2 4.4 8.7 97 0.2 WNW 24 32 13 17 1010.4 1010.4 2.8
30/09:00pm 9.4 4.6 8.9 97 0.2 NW 24 32 13 17 1010.4 1010.4 2.8
30/08:56pm 9.3 5.2 8.8 97 0.2 NW 20 32 11 17 1010.4 1010.4 2.6
30/08:46pm 9.4 5.4 8.9 97 0.2 NW 20 28 11 15 1010.2 1010.2 2.6
30/08:35pm 9.4 5.4 8.9 97 0.2 NW 20 30 11 16 1010.2 1010.2 2.6
30/08:30pm 9.4 5.9 8.9 97 0.2 NW 17 24 9 13 1010.1 1010.1 2.6
30/08:18pm 9.4 6.7 8.9 97 0.2 NW 13 20 7 11 1010.1 1010.1 2.6
30/08:06pm 9.3 7.3 8.8 97 0.2 NNW 9 15 5 8 1010.2 1010.2 2.6
30/08:01pm 9.3 7.3 8.8 97 0.2 NNW 9 15 5 8 1010.1 1010.1 2.6
30/08:00pm 9.3 7.3 8.8 97 0.2 NNW 9 15 5 8 1010.2 1010.2 2.6
30/07:44pm 9.1 7.1 8.6 97 0.2 NW 9 11 5 6 1010.2 1010.2 2.6
30/07:30pm 9.2 6.8 8.7 97 0.2 NNW 11 17 6 9 1010.2 1010.2 2.6
30/07:21pm 9.2 6.8 8.6 96 0.3 N 11 17 6 9 1010.0 1010.0 2.6
30/07:08pm 9.2 6.7 8.4 95 0.4 NNW 11 13 6 7 1010.1 1010.1 2.6
30/07:00pm 9.2 6.3 8.1 93 0.5 NNW 13 19 7 10 1010.1 1010.1 2.6
30/06:30pm 9.5 6.7 8.7 95 0.4 NNW 13 17 7 9 1010.0 1010.0 2.6
30/06:01pm 9.2 7.1 8.1 93 0.5 NW 9 9 5 5 1010.1 1010.1 2.6
30/06:00pm 9.2 7.1 8.1 93 0.5 NW 9 11 5 6 1010.1 1010.1 2.6
30/05:59pm 9.3 7.2 8.4 94 0.4 NW 9 13 5 7 1010.1 1010.1 2.6
30/05:34pm 9.4 6.4 7.8 90 0.8 NW 13 17 7 9 1010.3 1010.3 2.4
30/05:30pm 9.5 6.5 7.8 89 0.8 NW 13 15 7 8 1010.3 1010.3 2.2
30/05:00pm 9.4 6.3 7.2 86 1.0 WNW 13 17 7 9 1010.5 1010.6 2.2
30/04:30pm 9.8 6.6 8.6 92 0.6 W 15 19 8 10 1010.3 1010.3 2.2
30/04:12pm 9.8 6.7 8.9 94 0.4 WSW 15 19 8 10 1010.5 1010.6 2.2
30/04:06pm 9.3 6.1 8.4 94 0.4 WSW 15 19 8 10 1010.4 1010.4 2.2
30/04:00pm 9.8 7.2 9.2 96 0.3 WSW 13 19 7 10 1010.4 1010.4 2.2
30/03:46pm 9.8 5.8 9.0 95 0.4 W 20 26 11 14 1010.5 1010.6 2.2
30/03:30pm 9.9 5.8 8.7 92 0.6 W 20 26 11 14 1010.5 1010.6 1.8
30/03:00pm 9.8 6.3 8.9 94 0.4 WNW 17 24 9 13 1010.4 1010.4 1.8
30/02:57pm 10.2 6.9 9.6 96 0.3 WNW 17 22 9 12 1010.4 1010.4 1.8
30/02:50pm 10.4 7.2 9.9 97 0.3 WNW 17 20 9 11 1010.5 1010.6 1.8
30/02:30pm 10.0 5.7 9.4 96 0.3 WSW 22 26 12 14 1010.8 1010.9 1.6
30/02:15pm 10.4 6.4 9.0 91 0.7 W 20 30 11 16 1010.7 1010.8 1.6
30/02:00pm 10.6 6.2 8.9 89 0.8 W 22 28 12 15 1010.5 1010.6 1.6
30/01:56pm 10.5 6.3 8.4 87 1.0 WNW 20 26 11 14 1010.5 1010.6 1.6
30/01:39pm 10.5 6.5 8.9 90 0.8 WNW 20 30 11 16 1010.4 1010.4 1.6
30/01:30pm 10.2 6.2 9.1 93 0.5 WNW 20 30 11 16 1010.5 1010.6 1.6
30/01:00pm 10.0 6.6 9.2 95 0.4 W 17 20 9 11 1010.3 1010.3 1.6
30/12:49pm 10.0 6.7 9.5 97 0.2 W 17 24 9 13 1010.4 1010.4 1.6
30/12:30pm 9.8 6.4 9.3 97 0.2 W 17 20 9 11 1010.4 1010.4 1.6
30/12:00pm 9.6 5.2 9.1 97 0.2 W 22 32 12 17 1010.5 1010.6 1.4
30/11:42am 9.3 5.2 8.8 97 0.2 WNW 20 33 11 18 1010.5 1010.6 0.8
30/11:33am 9.5 5.1 9.0 97 0.2 WNW 22 32 12 17 1010.5 1010.6 0.6
30/11:30am 9.4 4.6 8.9 97 0.2 WNW 24 32 13 17 1010.5 1010.6 0.6
30/11:22am 9.6 4.8 9.0 96 0.3 WNW 24 32 13 17 1010.5 1010.6 0.2
30/11:19am 9.8 4.7 9.2 96 0.3 WNW 26 35 14 19 1010.5 1010.6 0.2
30/11:05am 9.9 3.9 8.5 91 0.7 WNW 30 39 16 21 1010.6 1010.7 0.0
30/11:00am 10.5 4.9 8.8 89 0.8 WNW 28 33 15 18 1010.6 1010.7 0.0
30/10:59am 10.4 4.7 8.5 88 0.9 WNW 28 37 15 20 1010.6 1010.7 0.0
30/10:30am 10.6 4.5 8.2 85 1.2 WNW 30 41 16 22 1010.6 1010.7 0.0
30/10:00am 11.1 5.1 8.5 84 1.3 NW 30 37 16 20 1010.5 1010.6 0.0
30/09:30am 10.4 5.5 8.5 88 0.9 NW 24 32 13 17 1010.5 1010.6 0.0
30/09:00am 9.8 5.7 8.6 92 0.6 NW 20 28 11 15 1010.4 1010.4 3.2
30/08:30am 9.2 5.0 8.4 95 0.4 WNW 20 28 11 15 1010.4 1010.4 3.2
30/08:13am 9.0 5.4 8.5 97 0.2 NW 17 20 9 11 1010.4 1010.4 3.2
30/08:10am 8.9 5.3 8.5 97 0.2 NW 17 22 9 12 1010.3 1010.3 3.2
30/08:00am 8.8 4.2 8.2 96 0.3 WNW 22 32 12 17 1010.2 1010.2 3.2
30/07:54am 8.8 3.8 8.0 95 0.4 WNW 24 37 13 20 1010.2 1010.2 3.2
30/07:34am 9.1 4.7 7.5 90 0.8 WNW 20 35 11 19 1010.2 1010.2 2.8
30/07:30am 9.5 5.8 7.8 89 0.8 WNW 17 26 9 14 1010.2 1010.2 2.8
30/07:00am 9.1 5.0 7.7 91 0.7 WNW 19 24 10 13 1009.9 1009.9 2.8
30/06:46am 9.3 5.0 7.9 91 0.7 WNW 20 30 11 16 1009.9 1009.9 2.8
30/06:36am 9.2 4.4 7.3 88 0.9 WNW 22 30 12 16 1009.7 1009.7 2.8
30/06:30am 9.0 4.6 7.3 89 0.8 WNW 20 28 11 15 1009.7 1009.7 2.8
30/06:06am 9.1 4.8 8.0 93 0.5 NW 20 28 11 15 1009.4 1009.4 2.8
30/06:00am 9.1 4.8 8.0 93 0.5 NW 20 26 11 14 1009.3 1009.3 2.8
30/05:39am 9.0 4.8 8.2 95 0.4 NW 20 26 11 14 1009.2 1009.2 2.8
30/05:30am 9.2 5.2 8.3 94 0.4 NW 19 26 10 14 1009.0 1009.0 2.8
30/05:22am 9.3 5.6 8.1 92 0.6 WNW 17 20 9 11 1008.9 1008.9 2.8
30/05:00am 9.1 4.8 7.7 91 0.7 WNW 20 28 11 15 1009.1 1009.1 2.8
30/04:43am 9.1 4.8 7.7 91 0.7 WNW 20 26 11 14 1009.2 1009.2 2.8
30/04:30am 9.1 5.0 8.0 93 0.5 NW 19 24 10 13 1009.2 1009.2 2.8
30/04:00am 9.0 5.2 7.5 90 0.7 WNW 17 24 9 13 1009.5 1009.5 2.8
30/03:30am 9.0 4.6 7.6 91 0.7 WNW 20 30 11 16 1009.6 1009.6 2.8
30/03:00am 9.0 4.5 8.4 96 0.3 WNW 22 30 12 16 1009.8 1009.8 2.8
30/02:46am 8.7 4.5 8.1 96 0.3 WNW 20 28 11 15 1009.6 1009.6 2.8
30/02:41am 8.5 4.2 7.7 95 0.4 NW 20 28 11 15 1009.6 1009.6 2.8
30/02:30am 8.7 2.9 7.8 94 0.4 WNW 28 39 15 21 1009.7 1009.7 2.8
30/02:24am 9.1 3.3 8.0 93 0.5 WNW 28 39 15 21 1009.8 1009.8 1.8
30/02:01am 9.5 3.8 8.3 92 0.6 NW 28 39 15 21 1009.7 1009.7 1.6
30/02:00am 9.5 3.7 8.1 91 0.7 NW 28 39 15 21 1009.7 1009.7 1.6
30/01:30am 9.4 4.3 7.8 90 0.8 NW 24 32 13 17 1009.9 1009.9 1.6
30/01:00am 8.9 4.6 7.8 93 0.5 NNW 20 28 11 15 1010.2 1010.2 1.6
30/12:50am 8.8 5.1 7.9 94 0.4 NW 17 24 9 13 1010.3 1010.3 1.6
30/12:35am 8.8 2.2 7.6 92 0.6 NW 32 44 17 24 1010.5 1010.6 1.6
30/12:30am 9.2 2.6 7.8 91 0.7 NW 32 44 17 24 1010.4 1010.4 1.6
30/12:19am 9.4 4.4 8.2 92 0.6 NW 24 33 13 18 1010.3 1010.3 1.6
30/12:02am 9.1 3.2 7.4 89 0.8 NW 28 41 15 22 1010.6 1010.7 1.6
30/12:00am 9.1 3.1 7.2 88 0.9 NW 28 41 15 22 1010.6 1010.7 1.6
 
Date/Time
EDT
Temp
°C
App
Temp
°C
Dew
Point
Rel
Hum
%
Delta-T
°C
Wind Press
QNH
hPa
Press
MSL
hPa
Rain
since 9 am
mm
Dir
 
Spd
km/h
Gust
km/h
Spd
kts
Gust
kts
29/11:30pm 9.3 5.1 8.1 92 0.6 NW 20 24 11 13 1010.8 1010.9 1.6
29/11:00pm 9.1 5.0 7.9 92 0.6 NW 19 24 10 13 1011.0 1011.1 1.6
29/10:36pm 8.8 4.5 7.9 94 0.4 WNW 20 28 11 15 1010.9 1011.0 1.6
29/10:30pm 8.8 4.5 8.0 95 0.4 NW 20 28 11 15 1011.0 1011.1 1.6
29/10:20pm 9.1 2.6 8.0 93 0.5 WNW 32 41 17 22 1011.1 1011.2 1.6
29/10:00pm 9.4 3.9 7.5 88 0.9 NW 26 37 14 20 1011.0 1011.1 1.6
29/09:30pm 9.1 3.1 6.9 86 1.0 WNW 28 37 15 20 1011.1 1011.2 1.6

Other Formats:

Comma delimited format used in spreadsheet applications
http://www.bom.gov.au/fwo/IDT60801/IDT60801.94956.axf

JavaScript Object Notation format (JSON) in row-major order
http://www.bom.gov.au/fwo/IDT60801/IDT60801.94956.json